Time;durP1;ratioP1;P1;durP2;ratioP2;P2;SDS_P1;SDS_P2;PMS_P1;PMS_P2;Temp;Humidity;BMP_temperature;BMP_pressure;BME280_temperature;BME280_humidity;BME280_pressure;Samples;Min_cycle;Max_cycle;Signal;HPM_P1;HPM_P2
2022/08/28 00:00:51;;;;;;;4.00;1.55;;;;;;;;;;7333761;19;154184;-15
2022/08/28 00:03:24;;;;;;;3.08;2.03;;;;;;;;;;7333488;19;153564;-15
2022/08/28 00:05:58;;;;;;;3.03;1.83;;;;;;;;;;7333213;19;162114;-15
2022/08/28 00:08:30;;;;;;;2.55;1.60;;;;;;;;;;7335885;19;162405;-15
2022/08/28 00:11:02;;;;;;;4.63;2.03;;;;;;;;;;7333365;19;154104;-15
2022/08/28 00:13:33;;;;;;;5.20;1.95;;;;;;;;;;7333454;19;153592;-15
2022/08/28 00:16:07;;;;;;;1.65;1.52;;;;;;;;;;7332178;19;161881;-15
2022/08/28 00:18:39;;;;;;;5.43;1.83;;;;;;;;;;7332932;19;162401;-15
2022/08/28 00:21:13;;;;;;;4.63;2.00;;;;;;;;;;7333207;19;154163;-15
2022/08/28 00:23:44;;;;;;;4.72;2.05;;;;;;;;;;7333167;19;153580;-14
2022/08/28 00:27:51;;;;;;;3.03;1.80;;;;;;;;;;7332736;19;161975;-15
2022/08/28 00:29:05;;;;;;;3.58;2.17;;;;;;;;;;7332382;19;162531;-15
2022/08/28 00:31:38;;;;;;;2.17;1.70;;;;;;;;;;7332620;19;154005;-15
2022/08/28 00:34:10;;;;;;;;;;;;;;;;;;7331115;19;153499;-15
2022/08/28 00:36:44;;;;;;;4.05;1.80;;;;;;;;;;7331300;19;162249;-15
2022/08/28 00:39:15;;;;;;;8.43;1.75;;;;;;;;;;7330951;19;162996;-14
2022/08/28 00:41:47;;;;;;;2.58;1.80;;;;;;;;;;7332495;19;154015;-15
2022/08/28 00:44:21;;;;;;;3.70;1.90;;;;;;;;;;7332576;19;153468;-14
2022/08/28 00:46:54;;;;;;;4.30;2.00;;;;;;;;;;7332064;19;162221;-15
2022/08/28 00:49:30;;;;;;;2.42;1.65;;;;;;;;;;7331994;19;162411;-15
2022/08/28 00:52:07;;;;;;;3.80;1.60;;;;;;;;;;7332451;19;154050;-15
2022/08/28 00:54:42;;;;;;;3.83;1.60;;;;;;;;;;7329262;19;153551;-15
2022/08/28 00:57:18;;;;;;;3.90;2.00;;;;;;;;;;7334812;19;162140;-15
2022/08/28 00:59:49;;;;;;;3.80;2.05;;;;;;;;;;7331526;19;162701;-15
2022/08/28 01:02:20;;;;;;;1.98;1.50;;;;;;;;;;7332196;19;154063;-15
2022/08/28 01:04:52;;;;;;;2.58;1.70;;;;;;;;;;7331953;19;153681;-15
2022/08/28 01:07:26;;;;;;;3.22;1.80;;;;;;;;;;7330559;19;162016;-15
2022/08/28 01:09:59;;;;;;;3.85;1.60;;;;;;;;;;7331410;19;162493;-16
2022/08/28 01:12:33;;;;;;;3.17;2.10;;;;;;;;;;7331803;19;153934;-15
2022/08/28 01:15:09;;;;;;;2.75;1.60;;;;;;;;;;7331557;19;153577;-15
2022/08/28 01:17:42;;;;;;;3.22;1.85;;;;;;;;;;7329423;19;161847;-15
2022/08/28 01:20:18;;;;;;;7.00;2.45;;;;;;;;;;7331189;19;162406;-15
2022/08/28 01:23:05;;;;;;;2.33;1.50;;;;;;;;;;7330180;19;154019;-15
2022/08/28 01:25:40;;;;;;;2.75;1.85;;;;;;;;;;7331176;19;153439;-15
2022/08/28 01:28:13;;;;;;;3.72;2.47;;;;;;;;;;7330999;19;161763;-15
2022/08/28 01:30:47;;;;;;;2.28;2.03;;;;;;;;;;7330698;19;162560;-15
2022/08/28 01:33:18;;;;;;;2.78;1.92;;;;;;;;;;7331124;19;154119;-15
2022/08/28 01:35:49;;;;;;;2.20;1.73;;;;;;;;;;7330994;19;153885;-15
2022/08/28 01:38:21;;;;;;;4.80;1.58;;;;;;;;;;7327161;19;162061;-15
2022/08/28 01:40:56;;;;;;;4.88;1.83;;;;;;;;;;7330539;19;162572;-14
2022/08/28 01:43:30;;;;;;;7.32;2.35;;;;;;;;;;7330941;19;154299;-15
2022/08/28 01:46:03;;;;;;;2.08;1.90;;;;;;;;;;7330319;19;153331;-14
2022/08/28 01:48:39;;;;;;;3.92;1.85;;;;;;;;;;7330348;19;162095;-15
2022/08/28 01:51:13;;;;;;;3.03;1.65;;;;;;;;;;7330168;19;162664;-14
2022/08/28 01:53:46;;;;;;;2.78;1.83;;;;;;;;;;7329857;19;154053;-14
2022/08/28 01:56:20;;;;;;;2.33;1.65;;;;;;;;;;7330675;19;153485;-15
2022/08/28 01:58:52;;;;;;;2.35;1.70;;;;;;;;;;7329614;19;162075;-15
2022/08/28 02:01:23;;;;;;;2.50;1.77;;;;;;;;;;7329823;19;162722;-15
2022/08/28 02:03:55;;;;;;;2.13;1.80;;;;;;;;;;7330284;19;154040;-15
2022/08/28 02:06:26;;;;;;;3.05;2.13;;;;;;;;;;7330068;19;153825;-15
2022/08/28 02:08:57;;;;;;;3.22;1.83;;;;;;;;;;7329811;19;161938;-15
2022/08/28 02:11:31;;;;;;;2.22;1.52;;;;;;;;;;7329631;19;162851;-15
2022/08/28 02:14:03;;;;;;;4.72;1.92;;;;;;;;;;7330071;19;154021;-15
2022/08/28 02:16:34;;;;;;;3.17;1.80;;;;;;;;;;7329906;19;153638;-15
2022/08/28 02:19:05;;;;;;;2.10;1.73;;;;;;;;;;7326763;19;161775;-14
2022/08/28 02:21:37;;;;;;;3.38;1.80;;;;;;;;;;7329426;19;162222;-15
2022/08/28 02:24:08;;;;;;;4.47;2.20;;;;;;;;;;7329724;19;154078;-14
2022/08/28 02:26:42;;;;;;;1.73;1.63;;;;;;;;;;7329759;19;153761;-15
2022/08/28 02:29:14;;;;;;;2.58;1.55;;;;;;;;;;7327999;19;162549;-15
2022/08/28 02:31:45;;;;;;;2.67;1.80;;;;;;;;;;7327821;19;162875;-15
2022/08/28 02:34:19;;;;;;;1.83;1.70;;;;;;;;;;7329364;19;154065;-15
2022/08/28 02:36:50;;;;;;;3.90;1.58;;;;;;;;;;7329347;19;153620;-15
2022/08/28 02:39:23;;;;;;;4.20;1.85;;;;;;;;;;7326141;19;162006;-15
2022/08/28 02:41:57;;;;;;;3.63;1.88;;;;;;;;;;7328582;19;162456;-14
2022/08/28 02:44:28;;;;;;;3.15;1.55;;;;;;;;;;7329247;19;154384;-15
2022/08/28 02:46:59;;;;;;;5.20;1.63;;;;;;;;;;7329041;19;153541;-15
2022/08/28 02:49:31;;;;;;;2.22;1.60;;;;;;;;;;7328422;19;161952;-15
2022/08/28 02:52:02;;;;;;;2.28;1.60;;;;;;;;;;7330308;19;162553;-15
2022/08/28 02:54:38;;;;;;;3.88;1.52;;;;;;;;;;7327071;19;154086;-15
2022/08/28 02:57:12;;;;;;;3.63;1.70;;;;;;;;;;7329841;19;153647;-15
2022/08/28 02:59:46;;;;;;;2.40;1.73;;;;;;;;;;7332966;19;162233;-15
2022/08/28 03:02:17;;;;;;;3.17;1.92;;;;;;;;;;7334909;19;162528;-15
2022/08/28 03:04:49;;;;;;;1.92;1.67;;;;;;;;;;7335391;19;154054;-15
2022/08/28 03:07:21;;;;;;;4.75;2.08;;;;;;;;;;7334000;19;153767;-15
2022/08/28 03:09:52;;;;;;;2.38;2.00;;;;;;;;;;7334836;19;161854;-14
2022/08/28 03:12:26;;;;;;;7.03;2.40;;;;;;;;;;7333751;19;162593;-15
2022/08/28 03:15:00;;;;;;;4.28;2.05;;;;;;;;;;7335148;19;154502;-15
2022/08/28 03:17:33;;;;;;;2.38;1.75;;;;;;;;;;7334930;19;153493;-16
2022/08/28 03:20:06;;;;;;;2.72;1.80;;;;;;;;;;7334746;19;161822;-15
2022/08/28 03:25:21;;;;;;;2.22;1.80;;;;;;;;;;7333711;19;154046;-15
2022/08/28 03:27:58;;;;;;;3.65;1.92;;;;;;;;;;7334731;19;153542;-15
2022/08/28 03:30:29;;;;;;;2.53;1.85;;;;;;;;;;7334220;19;161820;-15
2022/08/28 03:33:01;;;;;;;2.30;2.05;;;;;;;;;;7334322;19;162569;-15
2022/08/28 03:35:32;;;;;;;2.35;1.83;;;;;;;;;;7334515;19;154148;-15
2022/08/28 03:38:03;;;;;;;2.00;1.88;;;;;;;;;;7334124;19;153476;-22
2022/08/28 03:40:35;;;;;;;4.38;1.98;;;;;;;;;;7334151;19;161923;-15
2022/08/28 03:43:09;;;;;;;2.58;2.20;;;;;;;;;;7332797;19;162439;-14
2022/08/28 03:45:40;;;;;;;3.88;2.45;;;;;;;;;;7334220;19;154140;-15
2022/08/28 03:48:14;;;;;;;4.28;1.83;;;;;;;;;;7334263;19;153706;-15
2022/08/28 03:50:45;;;;;;;3.75;2.20;;;;;;;;;;7333864;19;161858;-15
2022/08/28 03:53:16;;;;;;;3.17;1.92;;;;;;;;;;7333478;19;162840;-15
2022/08/28 03:55:47;;;;;;;3.50;1.98;;;;;;;;;;7331648;19;154062;-15
2022/08/28 03:58:23;;;;;;;5.10;2.17;;;;;;;;;;7333482;19;153532;-15
2022/08/28 04:00:54;;;;;;;3.85;2.20;;;;;;;;;;7333397;19;162022;-15
2022/08/28 04:03:26;;;;;;;5.00;2.05;;;;;;;;;;7333320;19;162404;-15
2022/08/28 04:05:58;;;;;;;2.38;2.00;;;;;;;;;;7333755;19;154009;-15
2022/08/28 04:08:30;;;;;;;4.25;2.65;;;;;;;;;;7331982;19;153639;-15
2022/08/28 04:11:01;;;;;;;5.20;2.30;;;;;;;;;;7332459;19;161847;-15
2022/08/28 04:13:38;;;;;;;3.78;2.30;;;;;;;;;;7332987;19;162300;-15
2022/08/28 04:16:12;;;;;;;4.07;2.22;;;;;;;;;;7332024;19;154194;-15
2022/08/28 04:18:44;;;;;;;3.08;2.20;;;;;;;;;;7332688;19;153771;-15
2022/08/28 04:21:18;;;;;;;3.17;2.38;;;;;;;;;;7332830;19;161856;-15
2022/08/28 04:23:50;;;;;;;3.05;2.20;;;;;;;;;;7332791;19;162482;-15
2022/08/28 04:26:23;;;;;;;4.43;2.20;;;;;;;;;;7333109;19;154148;-15
2022/08/28 04:28:57;;;;;;;4.22;2.50;;;;;;;;;;7333182;19;153519;-15
2022/08/28 04:31:30;;;;;;;3.35;2.38;;;;;;;;;;7332548;19;161760;-15
2022/08/28 04:34:07;;;;;;;2.53;2.33;;;;;;;;;;7332751;19;162340;-15
2022/08/28 04:36:40;;;;;;;3.20;2.00;;;;;;;;;;7332753;19;154280;-15
2022/08/28 04:39:11;;;;;;;3.13;2.30;;;;;;;;;;7332063;19;153801;-15
2022/08/28 04:41:42;;;;;;;4.40;2.20;;;;;;;;;;7331133;19;161958;-15
2022/08/28 04:44:16;;;;;;;3.88;2.40;;;;;;;;;;7332036;19;162531;-15
2022/08/28 04:46:47;;;;;;;3.88;1.98;;;;;;;;;;7331057;19;154006;-15
2022/08/28 04:49:18;;;;;;;3.20;2.80;;;;;;;;;;7332301;19;153534;-15
2022/08/28 04:51:50;;;;;;;2.88;2.38;;;;;;;;;;7335483;19;161963;-19
2022/08/28 04:54:21;;;;;;;2.70;2.30;;;;;;;;;;7330849;19;162668;-15
2022/08/28 04:56:52;;;;;;;3.67;2.17;;;;;;;;;;7332450;19;154481;-15
2022/08/28 04:59:26;;;;;;;4.03;2.45;;;;;;;;;;7331347;19;153847;-14
2022/08/28 05:01:57;;;;;;;4.30;2.38;;;;;;;;;;7331704;19;161874;-15
2022/08/28 05:04:28;;;;;;;3.47;2.80;;;;;;;;;;7331609;19;162413;-15
2022/08/28 05:06:59;;;;;;;5.50;2.80;;;;;;;;;;7331891;19;154007;-15
2022/08/28 05:09:31;;;;;;;3.78;2.42;;;;;;;;;;7331909;19;153723;-15
2022/08/28 05:12:05;;;;;;;5.13;2.80;;;;;;;;;;7331445;19;161812;-15
2022/08/28 05:14:38;;;;;;;4.00;2.25;;;;;;;;;;7331467;19;162373;-14
2022/08/28 05:17:10;;;;;;;4.57;2.47;;;;;;;;;;7330469;19;154149;-15
2022/08/28 05:19:41;;;;;;;3.28;2.20;;;;;;;;;;7329836;19;153739;-15
2022/08/28 05:22:13;;;;;;;9.60;3.10;;;;;;;;;;7331093;19;161866;-15
2022/08/28 05:24:46;;;;;;;8.90;2.67;;;;;;;;;;7331164;19;162967;-15
2022/08/28 05:27:17;;;;;;;5.82;2.58;;;;;;;;;;7330634;19;154072;-15
2022/08/28 05:29:52;;;;;;;4.22;2.50;;;;;;;;;;7331315;19;153641;-15
2022/08/28 05:32:24;;;;;;;4.70;2.90;;;;;;;;;;7330985;19;161801;-15
2022/08/28 05:34:55;;;;;;;2.85;2.65;;;;;;;;;;7330709;19;162417;-15
2022/08/28 05:37:26;;;;;;;6.32;3.40;;;;;;;;;;7331233;19;154081;-16
2022/08/28 05:39:57;;;;;;;4.05;2.70;;;;;;;;;;7329885;19;153774;-15
2022/08/28 05:42:29;;;;;;;3.28;2.65;;;;;;;;;;7330560;19;161814;-15
2022/08/28 05:45:02;;;;;;;4.05;2.70;;;;;;;;;;7330695;19;162739;-15
2022/08/28 05:47:34;;;;;;;3.40;2.60;;;;;;;;;;7329679;19;154083;-15
2022/08/28 05:50:06;;;;;;;4.53;2.50;;;;;;;;;;7330717;19;153658;-15
2022/08/28 05:52:39;;;;;;;5.38;2.60;;;;;;;;;;7330296;19;161807;-15
2022/08/28 05:55:18;;;;;;;3.75;2.45;;;;;;;;;;7327956;19;162345;-15
2022/08/28 05:57:52;;;;;;;5.15;2.50;;;;;;;;;;7329043;19;154057;-15
2022/08/28 06:00:29;;;;;;;3.03;2.35;;;;;;;;;;7330114;19;132557;-15
2022/08/28 06:03:00;;;;;;;5.03;2.40;;;;;;;;;;7328845;19;162017;-15
2022/08/28 06:05:31;;;;;;;4.05;3.17;;;;;;;;;;7329966;19;162794;-15
2022/08/28 06:08:02;;;;;;;5.15;2.72;;;;;;;;;;7330388;19;154263;-15
2022/08/28 06:10:36;;;;;;;4.75;2.83;;;;;;;;;;7330153;19;153711;-15
2022/08/28 06:13:07;;;;;;;5.13;2.95;;;;;;;;;;7332555;19;161918;-15
2022/08/28 06:15:47;;;;;;;4.28;3.25;;;;;;;;;;7328465;19;162558;-15
2022/08/28 06:18:19;;;;;;;2.78;2.45;;;;;;;;;;7330087;19;154153;-14
2022/08/28 06:20:50;;;;;;;3.93;2.60;;;;;;;;;;7328177;19;153661;-14
2022/08/28 06:23:24;;;;;;;4.75;3.25;;;;;;;;;;7329530;19;162353;-15
2022/08/28 06:25:55;;;;;;;3.30;2.58;;;;;;;;;;7329252;19;162712;-15
2022/08/28 06:28:29;;;;;;;5.80;3.10;;;;;;;;;;7329593;19;154061;-14
2022/08/28 06:31:06;;;;;;;3.75;3.05;;;;;;;;;;7329268;19;153502;-15
2022/08/28 06:33:56;;;;;;;3.05;2.75;;;;;;;;;;7328083;19;161800;-15
2022/08/28 06:36:28;;;;;;;3.28;2.95;;;;;;;;;;7329082;19;162642;-15
2022/08/28 06:39:02;;;;;;;3.28;2.78;;;;;;;;;;7329403;19;154199;-15
2022/08/28 06:41:39;;;;;;;4.70;3.03;;;;;;;;;;7327277;19;153685;-15
2022/08/28 06:44:12;;;;;;;6.97;2.72;;;;;;;;;;7328901;19;161947;-15
2022/08/28 06:46:45;;;;;;;;;;;;;;;;;;7329205;19;162505;-15
2022/08/28 06:49:17;;;;;;;4.00;2.88;;;;;;;;;;7329331;19;154168;-15
2022/08/28 06:51:48;;;;;;;4.05;2.95;;;;;;;;;;7328924;19;153595;-14
2022/08/28 06:54:19;;;;;;;3.78;2.50;;;;;;;;;;7327364;19;162055;-14
2022/08/28 06:56:52;;;;;;;;;;;;;;;;;;7328840;19;162455;-13
2022/08/28 06:59:23;;;;;;;4.40;2.97;;;;;;;;;;7330301;19;154050;-14
2022/08/28 07:01:57;;;;;;;5.55;3.38;;;;;;;;;;7326333;19;153826;-13
2022/08/28 07:04:28;;;;;;;4.43;3.55;;;;;;;;;;7328253;19;161985;-14
2022/08/28 07:06:59;;;;;;;7.55;3.38;;;;;;;;;;7327870;19;162423;-14
2022/08/28 07:09:30;;;;;;;4.13;2.83;;;;;;;;;;7328482;19;154321;-17
2022/08/28 07:12:02;;;;;;;4.10;3.45;;;;;;;;;;7328336;19;153731;-16
2022/08/28 07:14:33;;;;;;;3.67;2.75;;;;;;;;;;7327744;19;161613;-15
2022/08/28 07:17:07;;;;;;;5.85;3.38;;;;;;;;;;7327671;19;162499;-14
2022/08/28 07:19:39;;;;;;;3.92;2.65;;;;;;;;;;7327934;19;154046;-14
2022/08/28 07:22:10;;;;;;;3.30;2.60;;;;;;;;;;7325907;19;153531;-14
2022/08/28 07:24:41;;;;;;;3.05;2.63;;;;;;;;;;7327570;19;161817;-14
2022/08/28 07:27:14;;;;;;;3.97;3.35;;;;;;;;;;7327416;19;162353;-14
2022/08/28 07:29:48;;;;;;;3.22;2.90;;;;;;;;;;7327632;19;154222;-14
2022/08/28 07:32:25;;;;;;;3.53;2.95;;;;;;;;;;7326232;19;153587;-14
2022/08/28 07:34:57;;;;;;;4.13;3.03;;;;;;;;;;7325919;19;163250;-15
2022/08/28 07:37:28;;;;;;;4.50;3.00;;;;;;;;;;7326964;19;162427;-14
2022/08/28 07:39:59;;;;;;;3.75;2.67;;;;;;;;;;7326047;19;154093;-15
2022/08/28 07:45:14;;;;;;;6.50;3.00;;;;;;;;;;7333826;19;161805;-16
2022/08/28 07:47:50;;;;;;;4.68;3.13;;;;;;;;;;7332070;19;162511;-15
2022/08/28 07:50:21;;;;;;;5.93;3.25;;;;;;;;;;7336633;19;154311;-15
2022/08/28 07:52:52;;;;;;;7.95;3.63;;;;;;;;;;7332757;19;153712;-14
2022/08/28 07:55:25;;;;;;;6.72;3.17;;;;;;;;;;7329783;19;161793;-15
2022/08/28 07:57:56;;;;;;;6.13;3.20;;;;;;;;;;7332105;19;162487;-14
2022/08/28 08:00:27;;;;;;;8.55;3.60;;;;;;;;;;7332966;19;154105;-17
2022/08/28 08:03:01;;;;;;;10.55;4.05;;;;;;;;;;7333184;19;153506;-15
2022/08/28 08:05:32;;;;;;;4.90;3.47;;;;;;;;;;7333185;19;161789;-14
2022/08/28 08:08:03;;;;;;;7.70;3.63;;;;;;;;;;7332891;19;162625;-15
2022/08/28 08:10:35;;;;;;;6.00;3.72;;;;;;;;;;7333188;19;154218;-14
2022/08/28 08:13:06;;;;;;;6.47;3.88;;;;;;;;;;7333103;19;153526;-15
2022/08/28 08:15:37;;;;;;;8.45;3.92;;;;;;;;;;7332656;19;161797;-15
2022/08/28 08:18:11;;;;;;;7.15;3.80;;;;;;;;;;7332555;19;162525;-14
2022/08/28 08:20:45;;;;;;;8.57;4.30;;;;;;;;;;7333888;19;154089;-14
2022/08/28 08:23:21;;;;;;;6.80;4.70;;;;;;;;;;7329308;19;153526;-14
2022/08/28 08:25:59;;;;;;;5.60;4.13;;;;;;;;;;7331745;19;161856;-15
2022/08/28 08:28:31;;;;;;;6.97;4.47;;;;;;;;;;7332398;19;162501;-15
2022/08/28 08:31:08;;;;;;;7.90;5.13;;;;;;;;;;7331421;19;154173;-15
2022/08/28 08:33:46;;;;;;;6.82;3.70;;;;;;;;;;7331652;19;153715;-15
2022/08/28 08:36:25;;;;;;;8.02;4.15;;;;;;;;;;7332108;19;161994;-15
2022/08/28 08:38:59;;;;;;;8.55;4.60;;;;;;;;;;7331950;19;162633;-15
2022/08/28 08:41:35;;;;;;;10.20;4.63;;;;;;;;;;7332010;19;154006;-15
2022/08/28 08:44:11;;;;;;;7.78;4.53;;;;;;;;;;7331881;19;153649;-15
2022/08/28 08:46:55;;;;;;;8.10;5.05;;;;;;;;;;7332022;19;161618;-15
2022/08/28 08:49:37;;;;;;;8.52;4.95;;;;;;;;;;7331687;19;162541;-16
2022/08/28 08:52:29;;;;;;;7.35;3.85;;;;;;;;;;7332154;19;154199;-15
2022/08/28 08:55:13;;;;;;;8.10;4.20;;;;;;;;;;7328262;19;153940;-16
2022/08/28 08:57:47;;;;;;;5.22;4.20;;;;;;;;;;7331672;19;161637;-16
2022/08/28 09:00:27;;;;;;;8.88;4.40;;;;;;;;;;7330062;19;162771;-15
2022/08/28 09:03:07;;;;;;;7.32;4.80;;;;;;;;;;7331145;19;154205;-15
2022/08/28 09:05:51;;;;;;;8.80;4.78;;;;;;;;;;7333586;19;153547;-15
2022/08/28 09:08:35;;;;;;;10.07;4.97;;;;;;;;;;7333942;19;162064;-16
2022/08/28 09:11:15;;;;;;;8.38;3.80;;;;;;;;;;7333029;19;162409;-15
2022/08/28 09:13:54;;;;;;;9.60;4.50;;;;;;;;;;7335705;19;153866;-17
2022/08/28 09:16:32;;;;;;;13.32;4.60;;;;;;;;;;7331587;19;153587;-16
2022/08/28 09:19:04;;;;;;;12.65;6.07;;;;;;;;;;7331175;19;161862;-16
2022/08/28 09:21:43;;;;;;;11.68;5.45;;;;;;;;;;7330963;19;162367;-27
2022/08/28 09:24:22;;;;;;;8.13;4.50;;;;;;;;;;7330700;19;155191;-15
2022/08/28 09:26:58;;;;;;;12.25;5.25;;;;;;;;;;7331051;19;153727;-15
2022/08/28 09:29:33;;;;;;;12.68;5.63;;;;;;;;;;7332785;19;161974;-15
2022/08/28 09:32:23;;;;;;;25.98;6.38;;;;;;;;;;7330402;19;162649;-16
2022/08/28 09:35:18;;;;;;;20.85;6.63;;;;;;;;;;7331052;19;154308;-15
2022/08/28 09:37:53;;;;;;;20.60;5.75;;;;;;;;;;7330693;19;153510;-15
2022/08/28 09:43:25;;;;;;;12.73;5.80;;;;;;;;;;7330297;19;162102;-15
2022/08/28 09:43:25;;;;;;;10.32;5.18;;;;;;;;;;7328629;19;162403;-15
2022/08/28 09:46:00;;;;;;;14.63;5.40;;;;;;;;;;7329474;19;154068;-15
2022/08/28 09:48:37;;;;;;;13.35;5.60;;;;;;;;;;7332175;19;153567;-15
2022/08/28 09:51:13;;;;;;;15.55;5.75;;;;;;;;;;7329633;19;162033;-15
2022/08/28 09:54:01;;;;;;;13.23;5.03;;;;;;;;;;7332034;19;162579;-16
2022/08/28 09:56:35;;;;;;;14.32;5.03;;;;;;;;;;7330259;19;154137;-15
2022/08/28 09:59:10;;;;;;;18.10;5.63;;;;;;;;;;7330136;19;153742;-15
2022/08/28 10:01:52;;;;;;;14.50;5.45;;;;;;;;;;7329674;19;161893;-15
2022/08/28 10:04:36;;;;;;;10.40;5.40;;;;;;;;;;7325381;19;162471;-15
2022/08/28 10:07:11;;;;;;;10.77;5.95;;;;;;;;;;7328574;19;154006;-15
2022/08/28 10:09:50;;;;;;;13.40;5.55;;;;;;;;;;7331517;19;153629;-15
2022/08/28 10:12:35;;;;;;;18.02;5.18;;;;;;;;;;7331895;19;162005;-15
2022/08/28 10:15:13;;;;;;;9.18;4.95;;;;;;;;;;7329653;19;162688;-15
2022/08/28 10:17:56;;;;;;;9.27;5.50;;;;;;;;;;7328215;19;154172;-15
2022/08/28 10:20:40;;;;;;;13.15;5.53;;;;;;;;;;7329150;19;153501;-15
2022/08/28 10:23:18;;;;;;;9.98;5.07;;;;;;;;;;7328602;19;161924;-15
2022/08/28 10:25:59;;;;;;;13.35;4.88;;;;;;;;;;7329569;19;162367;-16
2022/08/28 10:28:42;;;;;;;8.75;4.15;;;;;;;;;;7328870;19;153782;-16
2022/08/28 10:31:28;;;;;;;12.07;5.25;;;;;;;;;;7331456;19;153582;-16
2022/08/28 10:34:10;;;;;;;8.93;4.40;;;;;;;;;;7329257;19;162074;-17
2022/08/28 10:36:41;;;;;;;12.13;4.82;;;;;;;;;;7330556;19;162536;-16
2022/08/28 10:39:31;;;;;;;7.78;4.05;;;;;;;;;;7329626;19;153787;-16
2022/08/28 10:42:08;;;;;;;10.27;4.63;;;;;;;;;;7330572;19;153600;-16
2022/08/28 10:44:50;;;;;;;7.60;4.30;;;;;;;;;;7325955;19;162014;-16
2022/08/28 10:47:22;;;;;;;8.18;4.85;;;;;;;;;;7329314;19;162526;-16
2022/08/28 10:50:00;;;;;;;;;;;;;;;;;;7331352;19;154287;-16
2022/08/28 10:52:37;;;;;;;9.40;4.28;;;;;;;;;;7328811;19;153230;-16
2022/08/28 10:55:15;;;;;;;15.63;3.90;;;;;;;;;;7326160;19;162858;-16
2022/08/28 10:57:52;;;;;;;10.40;4.43;;;;;;;;;;7328834;19;162713;-15
2022/08/28 11:00:26;;;;;;;10.93;3.90;;;;;;;;;;7328309;19;153930;-14
2022/08/28 11:03:00;;;;;;;10.20;4.15;;;;;;;;;;7332038;19;153623;-15
2022/08/28 11:05:35;;;;;;;15.10;4.43;;;;;;;;;;7331097;19;162051;-14
2022/08/28 11:08:10;;;;;;;8.23;4.47;;;;;;;;;;7328617;19;162538;-14
2022/08/28 11:10:51;;;;;;;10.32;4.57;;;;;;;;;;7327947;19;154027;-15
2022/08/28 11:13:46;;;;;;;13.70;5.10;;;;;;;;;;7331046;19;153747;-15
2022/08/28 11:16:27;;;;;;;11.10;4.50;;;;;;;;;;7327521;19;161960;-15
2022/08/28 11:19:33;;;;;;;9.55;4.15;;;;;;;;;;7330990;19;162541;-15
2022/08/28 11:22:10;;;;;;;6.80;4.57;;;;;;;;;;7334608;19;154148;-16
2022/08/28 11:24:55;;;;;;;18.88;5.03;;;;;;;;;;7332908;19;153512;-15
2022/08/28 11:27:32;;;;;;;8.43;3.92;;;;;;;;;;7334323;19;161978;-15
2022/08/28 11:30:35;;;;;;;7.50;4.22;;;;;;;;;;7333610;19;162807;-15
2022/08/28 11:33:31;;;;;;;10.52;4.03;;;;;;;;;;7334538;19;154014;-15
2022/08/28 11:36:10;;;;;;;7.78;4.22;;;;;;;;;;7333122;19;153838;-16
2022/08/28 11:39:22;;;;;;;6.75;4.60;;;;;;;;;;7334013;19;162181;-15
2022/08/28 11:42:31;;;;;;;12.07;4.57;;;;;;;;;;7331361;19;162361;-14
2022/08/28 11:45:02;;;;;;;12.48;4.90;;;;;;;;;;7334931;19;154192;-15
2022/08/28 11:47:46;;;;;;;11.07;5.18;;;;;;;;;;7330106;19;153575;-23
2022/08/28 11:50:26;;;;;;;10.98;4.13;;;;;;;;;;7336521;19;161994;-15
2022/08/28 11:53:23;;;;;;;14.15;4.35;;;;;;;;;;7332695;19;163086;-15
2022/08/28 11:56:14;;;;;;;11.05;4.35;;;;;;;;;;7335223;19;154287;-15
2022/08/28 11:58:52;;;;;;;10.85;4.35;;;;;;;;;;7333275;19;153559;-14
2022/08/28 12:01:30;;;;;;;9.55;4.30;;;;;;;;;;7332521;19;161821;-15
2022/08/28 12:04:06;;;;;;;9.88;4.97;;;;;;;;;;7329589;19;162325;-15
2022/08/28 12:06:49;;;;;;;15.18;4.50;;;;;;;;;;7331577;19;154379;-15
2022/08/28 12:09:46;;;;;;;11.23;4.85;;;;;;;;;;7332169;19;154295;-15
2022/08/28 12:12:47;;;;;;;8.55;4.00;;;;;;;;;;7332923;19;161891;-15
2022/08/28 12:15:40;;;;;;;9.68;4.38;;;;;;;;;;7332474;19;162775;-15
2022/08/28 12:18:36;;;;;;;;;;;;;;;;;;7337503;19;154318;-16
2022/08/28 12:21:16;;;;;;;9.52;4.57;;;;;;;;;;7333307;19;153485;-16
2022/08/28 12:23:59;;;;;;;8.45;4.03;;;;;;;;;;7335507;19;161630;-16
2022/08/28 12:26:37;;;;;;;12.50;4.85;;;;;;;;;;7333090;19;162516;-15
2022/08/28 12:29:25;;;;;;;10.55;4.15;;;;;;;;;;7332660;19;154317;-16
2022/08/28 12:32:20;;;;;;;12.98;4.05;;;;;;;;;;7331986;19;153559;-15
2022/08/28 12:35:11;;;;;;;14.15;4.95;;;;;;;;;;7332768;19;162530;-15
2022/08/28 12:37:47;;;;;;;8.35;3.63;;;;;;;;;;7332605;19;162621;-15
2022/08/28 12:40:21;;;;;;;9.00;4.15;;;;;;;;;;7332983;19;154126;-16
2022/08/28 12:43:03;;;;;;;9.55;4.30;;;;;;;;;;7332801;19;153775;-16
2022/08/28 12:45:41;;;;;;;7.85;4.03;;;;;;;;;;7334067;19;162305;-16
2022/08/28 12:48:19;;;;;;;7.65;4.15;;;;;;;;;;7332211;19;162373;-16
2022/08/28 12:50:58;;;;;;;9.50;3.40;;;;;;;;;;7332902;19;154043;-15
2022/08/28 12:53:40;;;;;;;8.80;3.70;;;;;;;;;;7332267;19;153523;-16
2022/08/28 12:56:12;;;;;;;9.65;4.03;;;;;;;;;;7332243;19;162143;-16
2022/08/28 12:58:44;;;;;;;10.87;4.10;;;;;;;;;;7331898;19;163036;-16
2022/08/28 13:01:24;;;;;;;8.60;4.05;;;;;;;;;;7335990;19;154029;-16
2022/08/28 13:03:58;;;;;;;9.23;3.70;;;;;;;;;;7332058;19;153808;-16
2022/08/28 13:06:32;;;;;;;9.32;4.22;;;;;;;;;;7328981;19;161970;-16
2022/08/28 13:09:08;;;;;;;9.68;3.53;;;;;;;;;;7331182;19;162533;-16
2022/08/28 13:11:41;;;;;;;8.38;3.85;;;;;;;;;;7331355;19;154045;-15
2022/08/28 13:14:13;;;;;;;9.15;3.88;;;;;;;;;;7331983;19;153988;-15
2022/08/28 13:16:49;;;;;;;13.87;4.07;;;;;;;;;;7331438;19;161775;-14
2022/08/28 13:19:29;;;;;;;5.03;4.22;;;;;;;;;;7330897;19;162539;-15
2022/08/28 13:22:03;;;;;;;;;;;;;;;;;;7331638;19;154226;-15
2022/08/28 13:24:47;;;;;;;4.82;3.60;;;;;;;;;;7329807;19;153484;-14
2022/08/28 13:27:24;;;;;;;10.95;3.20;;;;;;;;;;7330597;19;162008;-15
2022/08/28 13:30:02;;;;;;;10.85;3.50;;;;;;;;;;7332163;19;162139;-14
2022/08/28 13:32:36;;;;;;;7.03;4.18;;;;;;;;;;7331041;19;154324;-15
2022/08/28 13:35:15;;;;;;;7.88;3.85;;;;;;;;;;7330633;19;153695;-14
2022/08/28 13:37:49;;;;;;;6.88;3.95;;;;;;;;;;7330162;19;161888;-15
2022/08/28 13:40:29;;;;;;;5.93;4.07;;;;;;;;;;7332188;19;162471;-16
2022/08/28 13:43:21;;;;;;;12.32;4.22;;;;;;;;;;7328710;19;154008;-16
2022/08/28 13:45:53;;;;;;;9.13;4.33;;;;;;;;;;7331914;19;153677;-16
2022/08/28 13:48:26;;;;;;;11.27;4.57;;;;;;;;;;7329558;19;162176;-14
2022/08/28 13:51:01;;;;;;;8.40;4.25;;;;;;;;;;7319732;19;162447;-13
2022/08/28 13:53:32;;;;;;;14.93;4.30;;;;;;;;;;7327736;19;154138;-14
2022/08/28 13:56:09;;;;;;;17.40;4.30;;;;;;;;;;7332792;19;153440;-16
2022/08/28 13:58:40;;;;;;;11.48;4.82;;;;;;;;;;7332707;19;162072;-16
2022/08/28 14:01:12;;;;;;;9.32;4.88;;;;;;;;;;7330738;19;162380;-16
2022/08/28 14:03:41;;;;;;;15.02;5.03;;;;;;;;;;7331498;19;154069;-16
2022/08/28 14:06:15;;;;;;;9.27;4.90;;;;;;;;;;7332491;19;153764;-16
2022/08/28 14:08:48;;;;;;;9.70;4.80;;;;;;;;;;7332333;19;161880;-16
2022/08/28 14:11:25;;;;;;;13.63;5.57;;;;;;;;;;7332315;19;162536;-16
2022/08/28 14:13:56;;;;;;;8.43;5.30;;;;;;;;;;7331178;19;154228;-17
2022/08/28 14:16:27;;;;;;;9.65;5.18;;;;;;;;;;7330568;19;153503;-17
2022/08/28 14:19:03;;;;;;;13.60;5.13;;;;;;;;;;7331942;19;162108;-17
2022/08/28 14:21:35;;;;;;;8.13;5.60;;;;;;;;;;7332564;19;163213;-16
2022/08/28 14:24:08;;;;;;;10.30;5.63;;;;;;;;;;7330583;19;154133;-16
2022/08/28 14:26:44;;;;;;;7.32;4.72;;;;;;;;;;7330713;19;153614;-16
2022/08/28 14:29:17;;;;;;;13.25;5.70;;;;;;;;;;7329244;19;161924;-16
2022/08/28 14:31:49;;;;;;;8.00;5.38;;;;;;;;;;7331460;19;163140;-16
2022/08/28 14:34:24;;;;;;;12.75;5.60;;;;;;;;;;7332625;19;154064;-16
2022/08/28 14:36:56;;;;;;;11.55;5.63;;;;;;;;;;7332341;19;154245;-16
2022/08/28 14:39:37;;;;;;;14.27;4.90;;;;;;;;;;7331014;19;162005;-16
2022/08/28 14:42:11;;;;;;;10.45;4.90;;;;;;;;;;7331612;19;162491;-16
2022/08/28 14:44:43;;;;;;;11.18;5.18;;;;;;;;;;7331531;19;154227;-17
2022/08/28 14:47:15;;;;;;;13.00;5.68;;;;;;;;;;7329929;19;153561;-17
2022/08/28 14:49:48;;;;;;;10.05;4.60;;;;;;;;;;7330384;19;161956;-16
2022/08/28 14:52:21;;;;;;;9.13;5.32;;;;;;;;;;7331311;19;162391;-16
2022/08/28 14:54:53;;;;;;;11.65;5.18;;;;;;;;;;7333063;19;154367;-16
2022/08/28 14:57:28;;;;;;;10.05;5.32;;;;;;;;;;7335336;19;153824;-16
2022/08/28 14:59:59;;;;;;;12.77;5.40;;;;;;;;;;7336934;19;161834;-15
2022/08/28 15:02:30;;;;;;;12.75;5.05;;;;;;;;;;7334779;19;162087;-16
2022/08/28 15:05:02;;;;;;;7.30;3.90;;;;;;;;;;7334690;19;153893;-16
2022/08/28 15:07:33;;;;;;;9.70;4.82;;;;;;;;;;7337673;19;153534;-17
2022/08/28 15:10:04;;;;;;;7.65;4.00;;;;;;;;;;7333404;19;162191;-16
2022/08/28 15:12:38;;;;;;;8.75;5.45;;;;;;;;;;7334382;19;162688;-16
2022/08/28 15:15:10;;;;;;;7.00;4.55;;;;;;;;;;7337110;19;154060;-15
2022/08/28 15:17:42;;;;;;;5.32;4.25;;;;;;;;;;7334776;19;153636;-15
2022/08/28 15:20:13;;;;;;;11.82;4.55;;;;;;;;;;7334259;19;161831;-15
2022/08/28 15:22:45;;;;;;;9.75;4.90;;;;;;;;;;7334193;19;162498;-15